Time;durP1;ratioP1;P1;durP2;ratioP2;P2;SDS_P1;SDS_P2;PMS_P1;PMS_P2;Temp;Humidity;BMP_temperature;BMP_pressure;BME280_temperature;BME280_humidity;BME280_pressure;Samples;Min_cycle;Max_cycle;Signal;HPM_P1;HPM_P2
2021/11/12 00:13:44;;;;;;;19.95;14.88;;;;;;;14.52;27.88;95153.00;5074910;28;20052;-63
2021/11/12 00:16:11;;;;;;;20.45;14.77;;;;;;;15.15;26.70;95147.03;5075139;28;20606;-66
2021/11/12 00:18:39;;;;;;;19.13;14.95;;;;;;;14.19;28.19;95155.66;5074650;28;20052;-64
2021/11/12 00:21:07;;;;;;;19.25;14.73;;;;;;;14.49;27.97;95148.31;5075510;28;20063;-63
2021/11/12 00:23:36;;;;;;;22.80;15.60;;;;;;;14.79;27.28;95147.75;5074414;28;20493;-67
2021/11/12 00:26:04;;;;;;;20.30;15.20;;;;;;;14.50;27.93;95147.25;5075027;28;20052;-66
2021/11/12 00:28:37;;;;;;;23.75;16.65;;;;;;;14.04;28.73;95142.75;5074975;28;20455;-66
2021/11/12 00:42:05;;;;;;;25.40;19.08;;;;;;;14.47;27.95;95137.31;5046391;28;20351;-64
2021/11/12 00:44:36;;;;;;;16.98;14.40;;;;;;;15.12;27.03;95123.94;5074688;28;20451;-64
2021/11/12 00:47:18;;;;;;;20.17;15.18;;;;;;;14.54;27.90;95132.44;5074714;28;20045;-64
2021/11/12 00:49:59;;;;;;;19.20;14.07;;;;;;;14.50;27.98;95134.09;5074546;28;20056;-64
2021/11/12 00:53:40;;;;;;;21.42;15.45;;;;;;;14.51;28.00;95125.13;5074265;28;20059;-66
2021/11/12 00:55:27;;;;;;;25.13;17.60;;;;;;;14.72;27.83;95121.03;5073969;28;20060;-67
2021/11/12 00:57:55;;;;;;;22.10;16.42;;;;;;;14.98;27.60;95116.03;5074762;28;20055;-67
2021/11/12 01:00:24;;;;;;;22.55;16.58;;;;;;;15.50;26.59;95124.41;5070506;28;20049;-67
2021/11/12 01:02:51;;;;;;;28.88;18.55;;;;;;;14.92;27.53;95119.84;5072822;28;20059;-62
2021/11/12 01:05:18;;;;;;;24.30;16.40;;;;;;;14.96;27.58;95120.03;5074252;28;20052;-67
2021/11/12 01:07:46;;;;;;;22.88;16.02;;;;;;;14.80;27.66;95124.81;5074463;28;20044;-60
2021/11/12 01:10:16;;;;;;;25.58;15.85;;;;;;;14.98;27.22;95123.16;5073988;28;20056;-61
2021/11/12 01:12:43;;;;;;;19.17;15.82;;;;;;;14.70;27.81;95117.94;5073855;28;20447;-66
2021/11/12 01:15:15;;;;;;;20.40;16.38;;;;;;;15.01;27.62;95125.19;5073045;28;20059;-67
2021/11/12 01:17:44;;;;;;;25.52;15.75;;;;;;;14.66;28.07;95122.22;5074005;28;20052;-66
2021/11/12 01:20:15;;;;;;;19.08;14.75;;;;;;;15.14;27.29;95116.50;5074287;28;20048;-66
2021/11/12 01:22:43;;;;;;;20.75;17.00;;;;;;;14.78;27.95;95113.81;5074000;28;20045;-62
2021/11/12 01:25:11;;;;;;;19.67;16.17;;;;;;;14.48;28.40;95109.94;5069501;28;20057;-67
2021/11/12 01:27:39;;;;;;;18.77;15.57;;;;;;;14.72;28.03;95110.50;5074165;28;20386;-64
2021/11/12 01:30:09;;;;;;;20.33;15.48;;;;;;;13.73;29.65;95120.66;5073294;28;20389;-65
2021/11/12 01:32:37;;;;;;;19.73;15.63;;;;;;;13.70;30.04;95115.97;5073011;28;20067;-67
2021/11/12 01:35:06;;;;;;;18.88;15.80;;;;;;;14.30;28.71;95103.66;5073857;28;20375;-69
2021/11/12 01:37:34;;;;;;;24.25;16.98;;;;;;;14.41;28.44;95102.41;5056339;28;20052;-67
2021/11/12 01:40:06;;;;;;;23.30;16.48;;;;;;;14.50;28.40;95092.00;5074001;28;20048;-66
2021/11/12 01:42:55;;;;;;;23.98;16.65;;;;;;;14.22;28.36;95101.69;5080318;28;20033;-67
2021/11/12 01:45:32;;;;;;;21.00;15.68;;;;;;;13.73;29.21;95099.66;5072606;28;20048;-66
2021/11/12 01:48:25;;;;;;;20.85;16.05;;;;;;;14.11;28.79;95092.44;5074074;28;20368;-67
2021/11/12 01:53:46;;;;;;;21.67;16.45;;;;;;;14.26;28.63;95092.16;5044787;28;20052;-66
2021/11/12 02:01:23;;;;;;;27.38;19.50;;;;;;;15.58;26.58;95080.72;5072082;28;20670;-67
2021/11/12 02:03:51;;;;;;;22.40;16.75;;;;;;;15.09;27.17;95085.81;5073678;28;20068;-65
2021/11/12 02:06:21;;;;;;;24.05;17.88;;;;;;;14.43;28.21;95070.56;5073672;28;20052;-66
2021/11/12 02:08:49;;;;;;;25.73;18.00;;;;;;;14.08;28.77;95080.66;5064499;28;20041;-66
2021/11/12 02:11:17;;;;;;;25.38;18.33;;;;;;;13.92;29.11;95075.94;5053503;28;20060;-66
2021/11/12 02:13:45;;;;;;;24.63;17.83;;;;;;;14.36;28.48;95080.69;5066479;28;20056;-67
2021/11/12 02:16:20;;;;;;;23.45;17.75;;;;;;;14.20;28.89;95073.06;5073604;28;20044;-65
2021/11/12 02:18:48;;;;;;;27.02;19.10;;;;;;;13.94;29.17;95073.81;5073629;28;20056;-59
2021/11/12 02:26:23;;;;;;;27.48;20.17;;;;;;;13.44;29.92;95082.22;5072868;28;20052;-64
2021/11/12 02:28:56;;;;;;;31.77;20.20;;;;;;;14.05;28.99;95081.25;5055881;28;20068;-63
2021/11/12 02:31:26;;;;;;;30.30;19.40;;;;;;;14.19;28.74;95076.75;5075814;28;20055;-66
2021/11/12 02:33:56;;;;;;;27.88;19.02;;;;;;;14.71;27.81;95080.00;5075652;28;20064;-66
2021/11/12 02:36:23;;;;;;;25.27;18.20;;;;;;;14.35;28.33;95074.63;5076815;28;20371;-66
2021/11/12 02:38:53;;;;;;;25.10;18.95;;;;;;;13.89;29.06;95075.47;5076754;28;20056;-69
2021/11/12 02:41:21;;;;;;;27.60;18.63;;;;;;;13.54;29.68;95071.59;5077099;28;20417;-64
2021/11/12 02:43:50;;;;;;;29.63;19.15;;;;;;;13.00;30.59;95076.53;5074978;28;20052;-67
2021/11/12 02:46:22;;;;;;;26.38;18.02;;;;;;;13.19;30.51;95070.25;5064529;28;20056;-67
2021/11/12 02:48:50;;;;;;;26.92;18.10;;;;;;;13.47;29.70;95068.53;5077130;28;20048;-68
2021/11/12 02:51:24;;;;;;;24.98;17.48;;;;;;;13.28;29.90;95067.78;5076778;28;20052;-67
2021/11/12 02:53:52;;;;;;;25.13;17.77;;;;;;;13.48;29.79;95064.81;5076657;28;20063;-66
2021/11/12 02:56:37;;;;;;;28.85;17.65;;;;;;;13.04;30.54;95067.06;5076525;28;20040;-67
2021/11/12 02:59:11;;;;;;;26.73;18.27;;;;;;;13.36;30.20;95058.47;5076902;28;20044;-68
2021/11/12 03:01:45;;;;;;;26.50;17.95;;;;;;;13.45;29.76;95052.28;5070016;28;20099;-64
2021/11/12 03:04:13;;;;;;;29.70;21.67;;;;;;;13.34;29.92;95044.84;5071416;28;20056;-64
2021/11/12 03:06:41;;;;;;;33.95;23.58;;;;;;;13.57;29.67;95044.72;5076317;28;20063;-67
2021/11/12 03:09:10;;;;;;;35.47;22.65;;;;;;;13.45;29.84;95047.03;5076557;28;20056;-67
2021/11/12 03:11:39;;;;;;;36.75;21.75;;;;;;;13.72;29.42;95048.16;5076555;28;20057;-66
2021/11/12 03:14:08;;;;;;;31.23;21.98;;;;;;;13.39;29.83;95053.44;5062362;28;20044;-65
2021/11/12 03:16:35;;;;;;;31.33;20.52;;;;;;;13.64;29.57;95049.59;5065501;28;20044;-66
2021/11/12 03:19:05;;;;;;;31.55;21.00;;;;;;;13.75;29.07;95044.94;5075452;28;20057;-64
2021/11/12 03:21:33;;;;;;;25.55;19.92;;;;;;;13.58;29.25;95048.91;5058772;28;20443;-57
2021/11/12 03:24:05;;;;;;;28.52;20.25;;;;;;;13.26;30.00;95048.88;5076142;28;20051;-62
2021/11/12 04:49:21;;;;;;;30.73;23.42;;;;;;;14.05;29.07;95026.03;5074689;28;20050;-65
2021/11/12 05:12:27;;;;;;;36.30;24.95;;;;;;;14.96;27.52;95030.53;5054105;28;20059;-72
2021/11/12 05:35:09;;;;;;;41.13;28.25;;;;;;;14.02;28.72;95025.81;5072237;28;20052;-58
2021/11/12 05:45:44;;;;;;;39.08;29.05;;;;;;;13.99;30.06;95029.81;5070811;23;20048;-57
2021/11/12 05:56:19;;;;;;;49.20;29.45;;;;;;;14.73;29.17;95037.59;5064258;28;20371;-56
2021/11/12 05:58:47;;;;;;;40.85;29.25;;;;;;;14.72;29.23;95047.34;5073849;28;20052;-57
2021/11/12 06:01:14;;;;;;;45.17;31.27;;;;;;;14.84;28.87;95038.19;5073715;28;20366;-57
2021/11/12 06:03:41;;;;;;;48.75;35.20;;;;;;;15.10;29.35;95041.81;5073662;28;20061;-65
2021/11/12 06:06:09;;;;;;;53.67;37.95;;;;;;;14.46;29.81;95036.56;5077322;28;20056;-64
2021/11/12 06:08:37;;;;;;;65.30;46.53;;;;;;;14.46;30.58;95044.44;5077819;28;20659;-66
2021/11/12 06:11:04;;;;;;;67.40;45.97;;;;;;;14.61;30.95;95046.00;5077642;28;20455;-62
2021/11/12 06:13:31;;;;;;;64.07;49.13;;;;;;;14.78;30.90;95035.63;5076946;28;20052;-65
2021/11/12 06:15:58;;;;;;;69.10;57.75;;;;;;;14.98;30.56;95038.91;5076640;28;20146;-65
2021/11/12 06:18:26;;;;;;;61.38;48.85;;;;;;;15.02;29.96;95039.88;5076266;28;20052;-64
2021/11/12 06:20:53;;;;;;;55.45;43.50;;;;;;;15.14;29.67;95040.13;5077505;28;20049;-66
2021/11/12 06:23:20;;;;;;;49.45;36.28;;;;;;;15.10;29.60;95042.59;5077427;28;20055;-63
2021/11/12 06:25:47;;;;;;;51.92;36.20;;;;;;;15.37;29.40;95044.34;5076482;28;20052;-66
2021/11/12 06:28:14;;;;;;;37.92;29.70;;;;;;;15.03;29.56;95046.69;5077385;28;20485;-65
2021/11/12 06:30:41;;;;;;;37.53;30.50;;;;;;;15.76;28.93;95042.91;5072872;28;20440;-67
2021/11/12 06:33:08;;;;;;;33.08;26.48;;;;;;;15.47;29.73;95045.16;5057280;28;20045;-65
2021/11/12 06:35:36;;;;;;;37.15;26.65;;;;;;;15.71;29.44;95040.41;5063458;28;20056;-64
2021/11/12 06:38:03;;;;;;;37.55;24.58;;;;;;;15.78;29.12;95050.50;5097568;28;20059;-68
2021/11/12 06:40:30;;;;;;;30.55;23.45;;;;;;;16.10;28.67;95042.28;5097512;28;20056;-68
2021/11/12 06:43:10;;;;;;;29.88;23.30;;;;;;;15.85;27.86;95045.56;5097398;28;20098;-64
2021/11/12 06:51:13;;;;;;;27.95;21.45;;;;;;;15.79;28.69;95042.28;5077189;28;20049;-60
2021/11/12 06:53:40;;;;;;;28.02;21.40;;;;;;;15.93;28.64;95042.22;5092731;28;20064;-66
2021/11/12 06:56:07;;;;;;;27.65;20.55;;;;;;;15.46;29.76;95038.34;5042519;28;20052;-54
2021/11/12 06:58:38;;;;;;;30.95;21.73;;;;;;;15.80;29.19;95038.56;5039205;28;20049;-64
2021/11/12 07:01:05;;;;;;;31.58;20.67;;;;;;;15.87;29.70;95033.63;5039025;28;20486;-52
2021/11/12 07:03:32;;;;;;;25.58;20.77;;;;;;;15.75;29.23;95035.28;5056638;28;20060;-65
2021/11/12 07:06:00;;;;;;;30.38;22.42;;;;;;;15.93;29.59;95021.91;5062019;28;20048;-61
2021/11/12 07:08:27;;;;;;;25.52;21.85;;;;;;;15.72;29.23;95028.78;5076693;28;20367;-59
2021/11/12 07:10:56;;;;;;;32.15;23.35;;;;;;;16.12;28.97;95018.25;5076634;28;20052;-57
2021/11/12 07:13:25;;;;;;;27.13;23.08;;;;;;;15.93;28.82;95026.41;5076343;28;20334;-58
2021/11/12 07:15:53;;;;;;;26.45;21.80;;;;;;;15.95;29.00;95025.00;5074226;28;20052;-55
2021/11/12 07:18:21;;;;;;;30.80;24.23;;;;;;;16.04;28.68;95033.72;5076578;28;20051;-55
2021/11/12 07:20:50;;;;;;;30.98;24.02;;;;;;;15.80;29.18;95027.25;5076386;28;20332;-56
2021/11/12 07:23:19;;;;;;;29.88;24.77;;;;;;;16.00;28.78;95016.19;5076491;28;20351;-68
2021/11/12 07:25:48;;;;;;;32.05;26.33;;;;;;;15.96;29.19;95023.16;5075866;28;20049;-58
2021/11/12 07:28:15;;;;;;;30.58;25.35;;;;;;;16.31;29.24;95013.50;5060749;28;20052;-57
2021/11/12 07:30:43;;;;;;;32.08;25.67;;;;;;;16.08;29.23;95012.03;5056158;28;20060;-57
2021/11/12 07:33:12;;;;;;;29.92;23.92;;;;;;;16.39;29.50;95012.75;5056175;28;20049;-57
2021/11/12 07:35:59;;;;;;;30.40;22.23;;;;;;;16.33;29.00;95024.53;5057088;28;20133;-56
2021/11/12 07:38:30;;;;;;;27.00;20.92;;;;;;;16.30;29.26;95004.81;5075029;28;20052;-59
2021/11/12 07:46:10;;;;;;;24.50;20.38;;;;;;;16.70;28.33;95011.94;5074725;28;20435;-58
2021/11/12 07:48:39;;;;;;;23.90;19.55;;;;;;;17.12;27.73;95008.53;5054566;28;20563;-57
2021/11/12 07:51:07;;;;;;;24.05;21.02;;;;;;;16.93;27.42;95006.22;5055829;28;20049;-55
2021/11/12 07:53:35;;;;;;;23.58;20.83;;;;;;;17.10;27.72;95002.78;5055459;28;20120;-57
2021/11/12 07:56:02;;;;;;;24.85;20.30;;;;;;;17.69;27.12;94996.97;5060087;28;20045;-54
2021/11/12 07:58:29;;;;;;;32.20;24.33;;;;;;;17.57;26.65;94998.38;5075706;28;20045;-58
2021/11/12 08:00:57;;;;;;;28.15;22.98;;;;;;;17.48;26.41;94991.56;5075658;28;20064;-55
2021/11/12 08:03:24;;;;;;;25.88;21.35;;;;;;;17.06;26.76;94999.19;5075891;28;20459;-56
2021/11/12 08:05:53;;;;;;;25.58;21.33;;;;;;;18.17;26.53;94997.41;5075350;28;20059;-56
2021/11/12 08:08:22;;;;;;;24.77;20.83;;;;;;;18.01;26.28;94990.34;5075401;28;20048;-56
2021/11/12 08:10:55;;;;;;;25.52;22.00;;;;;;;18.25;26.21;95000.34;5075505;28;20348;-57
2021/11/12 08:13:35;;;;;;;28.75;22.35;;;;;;;18.16;26.16;94989.78;5075284;28;20048;-58
2021/11/12 08:21:17;;;;;;;22.88;20.08;;;;;;;18.28;26.26;95000.50;5095840;28;20047;-58
2021/11/12 08:26:43;;;;;;;25.50;19.42;;;;;;;18.39;26.35;94999.03;5065612;28;20051;-56
2021/11/12 08:29:24;;;;;;;30.75;24.48;;;;;;;18.52;25.65;94993.84;5094348;28;20040;-56
2021/11/12 08:34:56;;;;;;;27.98;21.48;;;;;;;19.49;24.74;94988.25;5064423;28;20056;-57
2021/11/12 08:45:44;;;;;;;28.35;20.83;;;;;;;19.05;25.29;94983.34;5065379;28;20063;-68
2021/11/12 08:48:18;;;;;;;26.48;21.85;;;;;;;19.01;25.31;94979.81;5075099;28;20058;-60
2021/11/12 08:50:46;;;;;;;26.67;22.15;;;;;;;19.25;25.05;94978.34;5074788;28;20051;-63
2021/11/12 08:53:15;;;;;;;25.92;23.05;;;;;;;18.94;25.39;94974.22;5074493;28;20048;-64
2021/11/12 08:55:43;;;;;;;31.88;22.15;;;;;;;19.66;24.26;94972.97;5071563;28;20048;-61
2021/11/12 08:58:11;;;;;;;27.77;22.58;;;;;;;19.55;24.61;94961.25;5074024;28;20044;-61
2021/11/12 09:00:40;;;;;;;25.70;22.70;;;;;;;19.09;24.87;94959.63;5074500;28;20056;-60
2021/11/12 09:03:08;;;;;;;25.55;22.60;;;;;;;19.50;24.54;94958.75;5074440;28;20045;-63
2021/11/12 09:05:36;;;;;;;25.38;22.48;;;;;;;19.76;24.83;94968.34;5074347;28;20044;-58
2021/11/12 09:08:03;;;;;;;29.65;22.55;;;;;;;19.61;24.50;94965.25;5072869;28;20060;-59
2021/11/12 09:10:31;;;;;;;26.60;21.95;;;;;;;19.66;24.65;94962.38;5074348;28;20067;-59
2021/11/12 09:13:06;;;;;;;26.17;23.42;;;;;;;19.98;24.34;94959.97;5074353;28;20036;-61
2021/11/12 09:15:33;;;;;;;36.33;25.00;;;;;;;20.29;23.29;94954.88;5060417;28;20048;-61
2021/11/12 09:18:02;;;;;;;30.95;25.67;;;;;;;20.32;24.27;94948.94;5072174;28;20055;-63
2021/11/12 09:20:29;;;;;;;30.42;26.05;;;;;;;20.83;23.27;94954.63;5073425;28;20497;-62
2021/11/12 09:22:58;;;;;;;28.75;24.98;;;;;;;21.29;22.52;94949.06;5054418;28;20048;-59
2021/11/12 09:25:26;;;;;;;31.08;25.30;;;;;;;21.23;22.27;94935.19;5053298;28;20041;-61
2021/11/12 09:27:53;;;;;;;36.25;28.20;;;;;;;21.51;21.34;94925.34;5069918;28;20079;-64
2021/11/12 09:30:23;;;;;;;33.92;30.33;;;;;;;21.96;20.82;94937.47;5074069;28;20048;-58
2021/11/12 09:32:52;;;;;;;37.33;30.10;;;;;;;21.87;21.62;94923.56;5053986;28;20053;-57
2021/11/12 09:35:20;;;;;;;46.15;29.38;;;;;;;22.58;20.01;94921.75;5053963;28;20758;-58
2021/11/12 09:37:47;;;;;;;36.22;30.95;;;;;;;22.14;20.37;94920.06;5069445;28;20056;-63
2021/11/12 09:40:14;;;;;;;36.50;30.25;;;;;;;21.69;20.51;94915.16;5073001;28;20063;-61
2021/11/12 09:42:43;;;;;;;37.78;31.10;;;;;;;22.83;19.47;94927.63;5072832;28;20045;-59
2021/11/12 09:45:11;;;;;;;32.90;28.58;;;;;;;22.67;19.36;94909.78;5064900;28;20055;-58
2021/11/12 09:47:39;;;;;;;34.55;27.08;;;;;;;22.23;20.69;94903.13;5073567;28;20044;-63
2021/11/12 09:50:13;;;;;;;35.28;28.25;;;;;;;23.14;19.16;94905.38;5056192;28;20398;-58
2021/11/12 09:52:43;;;;;;;31.35;26.77;;;;;;;23.65;17.92;94903.28;5055471;28;20044;-60
2021/11/12 09:55:11;;;;;;;37.03;27.08;;;;;;;22.66;19.80;94897.59;5062104;28;20044;-60
2021/11/12 09:57:41;;;;;;;30.38;26.05;;;;;;;22.74;19.40;94904.59;5072680;28;20040;-64
2021/11/12 10:00:11;;;;;;;29.60;26.40;;;;;;;22.87;19.48;94896.47;5053721;28;20049;-58
2021/11/12 10:02:44;;;;;;;33.92;26.73;;;;;;;23.00;19.38;94892.56;5053903;28;20053;-58
2021/11/12 10:05:12;;;;;;;40.33;27.27;;;;;;;22.59;19.39;94881.44;5053686;28;20041;-57
2021/11/12 10:07:40;;;;;;;29.70;26.33;;;;;;;22.77;19.46;94879.91;5067848;28;20048;-62
2021/11/12 10:10:14;;;;;;;30.40;25.75;;;;;;;22.84;19.32;94883.84;5072940;28;20044;-59
2021/11/12 10:12:48;;;;;;;30.42;25.60;;;;;;;22.55;20.87;94875.25;5073732;28;20052;-63
2021/11/12 10:15:31;;;;;;;32.17;25.60;;;;;;;22.74;19.99;94883.28;5064419;28;20048;-59
2021/11/12 10:18:06;;;;;;;;;;;;;;;22.80;19.08;94870.44;5073429;28;20044;-63
2021/11/12 10:20:33;;;;;;;35.75;26.52;;;;;;;22.87;19.81;94870.59;5073631;28;20325;-62
2021/11/12 10:23:16;;;;;;;36.25;25.27;;;;;;;22.90;19.50;94864.59;5073555;28;20044;-57
2021/11/12 10:25:56;;;;;;;;;;;;;;;22.66;19.40;94857.63;5073568;28;20374;-58
2021/11/12 10:28:40;;;;;;;32.90;25.17;;;;;;;23.42;18.87;94860.56;5073206;28;19920;-56
2021/11/12 10:31:26;;;;;;;27.70;23.15;;;;;;;23.64;19.22;94859.03;5062634;28;20060;-57
2021/11/12 10:33:53;;;;;;;27.80;24.73;;;;;;;23.84;18.06;94851.72;5053184;28;20051;-57
2021/11/12 10:36:20;;;;;;;28.17;24.60;;;;;;;24.03;17.65;94846.28;5055884;28;20052;-59
2021/11/12 10:38:49;;;;;;;25.20;22.50;;;;;;;23.51;18.36;94844.31;5073460;28;20048;-56
2021/11/12 10:41:21;;;;;;;26.77;23.23;;;;;;;23.90;17.62;94835.03;5073411;28;20059;-58
2021/11/12 10:43:50;;;;;;;26.10;23.10;;;;;;;24.06;18.02;94834.13;5058571;28;20052;-57
2021/11/12 10:46:36;;;;;;;25.92;23.15;;;;;;;24.72;16.96;94825.47;5061963;28;20064;-56
2021/11/12 10:49:38;;;;;;;27.52;22.88;;;;;;;25.08;16.50;94821.28;5072072;28;20056;-56
2021/11/12 10:52:12;;;;;;;26.10;23.23;;;;;;;24.14;17.84;94833.06;5052914;28;20732;-56
2021/11/12 10:54:58;;;;;;;26.45;23.00;;;;;;;24.32;17.79;94828.78;5076210;28;20053;-58
2021/11/12 10:57:28;;;;;;;28.13;22.23;;;;;;;25.07;16.35;94818.97;5076299;28;20040;-57
2021/11/12 11:00:03;;;;;;;25.85;22.08;;;;;;;24.65;17.66;94800.53;5076833;28;20048;-61
2021/11/12 11:02:37;;;;;;;27.42;22.13;;;;;;;24.24;17.44;94814.53;5076860;28;20052;-67
2021/11/12 11:05:08;;;;;;;26.75;22.55;;;;;;;24.55;17.43;94810.75;5076688;28;20470;-58
2021/11/12 11:07:37;;;;;;;25.45;21.17;;;;;;;24.19;17.90;94812.16;5076310;28;20060;-57
2021/11/12 11:10:07;;;;;;;25.65;21.52;;;;;;;24.16;17.40;94799.53;5076644;28;20051;-57
2021/11/12 11:12:38;;;;;;;27.30;22.25;;;;;;;23.77;17.99;94801.66;5076466;28;20044;-61
2021/11/12 11:15:18;;;;;;;28.73;23.40;;;;;;;24.12;17.62;94798.72;5065354;28;20470;-63
2021/11/12 11:17:50;;;;;;;33.10;22.25;;;;;;;24.08;17.80;94791.78;5076159;28;20044;-58
2021/11/12 11:20:22;;;;;;;23.83;21.05;;;;;;;25.57;15.86;94782.72;5071299;28;20057;-56
2021/11/12 11:22:57;;;;;;;28.55;21.65;;;;;;;25.24;16.24;94790.84;5055690;28;20045;-58
2021/11/12 11:25:26;;;;;;;30.77;21.17;;;;;;;24.62;17.04;94787.91;5041410;28;20440;-64
2021/11/12 11:27:56;;;;;;;25.77;21.23;;;;;;;23.92;17.33;94795.38;5068300;28;20052;-59
2021/11/12 11:30:23;;;;;;;24.65;20.23;;;;;;;24.26;16.97;94782.13;5056291;28;20048;-57
2021/11/12 11:32:50;;;;;;;27.02;21.00;;;;;;;23.82;16.58;94785.34;5056221;28;20363;-58
2021/11/12 11:35:20;;;;;;;22.67;20.27;;;;;;;23.73;16.93;94782.16;5059037;28;20057;-58
2021/11/12 11:37:51;;;;;;;23.98;20.13;;;;;;;23.84;17.01;94788.41;5080256;28;20049;-65
2021/11/12 11:40:18;;;;;;;23.38;20.60;;;;;;;23.76;17.38;94784.13;5076221;28;20522;-60
2021/11/12 11:42:45;;;;;;;25.10;19.50;;;;;;;23.24;18.36;94780.25;5052780;28;20052;-60
2021/11/12 11:45:14;;;;;;;27.73;19.13;;;;;;;23.43;17.91;94775.97;5060271;28;20071;-57
2021/11/12 11:47:43;;;;;;;23.65;19.63;;;;;;;23.43;17.70;94783.97;5075594;28;20055;-58
2021/11/12 11:50:27;;;;;;;23.33;19.80;;;;;;;23.53;17.70;94778.03;5084328;28;20459;-59
2021/11/12 11:53:22;;;;;;;26.45;19.38;;;;;;;23.52;17.28;94776.47;5075703;28;20048;-58
2021/11/12 11:55:49;;;;;;;25.73;19.50;;;;;;;23.73;16.99;94776.06;5074340;28;20067;-58
2021/11/12 11:58:39;;;;;;;23.45;18.50;;;;;;;23.95;17.34;94773.34;5075466;28;20041;-59
2021/11/12 12:01:30;;;;;;;27.00;20.42;;;;;;;24.53;16.27;94770.25;5061543;28;20041;-64
2021/11/12 12:04:10;;;;;;;24.65;20.30;;;;;;;24.90;16.03;94783.63;5055560;28;20059;-65
2021/11/12 12:07:03;;;;;;;27.50;20.85;;;;;;;23.86;17.28;94780.81;5067704;28;20037;-65
2021/11/12 12:09:51;;;;;;;27.67;21.17;;;;;;;24.16;17.33;94777.41;5053018;28;20052;-66
2021/11/12 12:12:39;;;;;;;23.85;21.42;;;;;;;25.05;15.50;94771.19;5055778;28;20045;-65
2021/11/12 12:15:12;;;;;;;21.85;19.55;;;;;;;26.21;14.70;94763.59;5059799;28;20059;-63
2021/11/12 12:17:43;;;;;;;31.88;22.02;;;;;;;24.40;17.14;94760.94;5066478;28;20048;-62
2021/11/12 12:41:10;;;;;;;25.85;20.02;;;;;;;23.85;17.01;94755.25;5054961;28;20359;-61
2021/11/12 13:25:58;;;;;;;25.73;22.45;;;;;;;24.41;16.15;94735.75;5046514;28;20471;-67
2021/11/12 13:28:28;;;;;;;30.35;22.70;;;;;;;24.10;16.67;94742.22;5053783;28;20049;-57
2021/11/12 13:31:11;;;;;;;26.13;22.30;;;;;;;23.96;16.90;94737.50;5052847;28;20041;-61
2021/11/12 13:33:41;;;;;;;29.00;23.98;;;;;;;23.97;16.97;94733.69;5053747;28;20049;-65
2021/11/12 13:36:19;;;;;;;27.75;22.52;;;;;;;24.27;16.45;94735.56;5053682;28;20060;-64
2021/11/12 13:38:51;;;;;;;28.63;23.02;;;;;;;24.00;16.65;94732.19;5052763;28;20368;-65
2021/11/12 13:41:20;;;;;;;27.35;23.02;;;;;;;24.08;16.67;94728.47;5053900;28;20060;-66
2021/11/12 13:43:49;;;;;;;27.77;23.77;;;;;;;23.91;17.02;94735.13;5053195;28;20348;-66
2021/11/12 13:46:17;;;;;;;29.40;23.13;;;;;;;24.49;16.63;94726.69;5053773;28;20033;-66
2021/11/12 13:48:45;;;;;;;34.05;23.90;;;;;;;24.01;16.72;94725.72;5053492;28;20071;-66
2021/11/12 13:51:13;;;;;;;32.38;24.00;;;;;;;24.18;16.54;94729.72;5053724;28;20044;-67
2021/11/12 13:53:40;;;;;;;32.50;23.58;;;;;;;24.10;16.41;94730.78;5036209;28;20057;-66
2021/11/12 13:56:10;;;;;;;27.08;23.02;;;;;;;24.26;16.68;94734.03;5035787;28;20345;-64
2021/11/12 13:58:40;;;;;;;32.67;24.38;;;;;;;24.54;16.22;94712.25;5053604;28;20052;-65
2021/11/12 14:01:35;;;;;;;35.53;23.83;;;;;;;24.67;15.94;94718.06;5052451;28;20049;-59
2021/11/12 14:04:03;;;;;;;35.92;24.60;;;;;;;24.63;16.05;94725.31;5051533;28;20052;-64
2021/11/12 14:06:38;;;;;;;29.90;24.05;;;;;;;24.38;16.43;94730.38;5053418;28;20128;-62
2021/11/12 14:09:05;;;;;;;32.28;24.42;;;;;;;24.55;16.03;94727.91;5036256;28;20053;-66
2021/11/12 14:11:33;;;;;;;29.80;24.13;;;;;;;24.55;16.46;94732.47;5053554;28;20056;-64
2021/11/12 14:14:06;;;;;;;31.85;25.98;;;;;;;24.18;16.68;94729.72;5052764;28;20052;-66
2021/11/12 14:16:43;;;;;;;30.58;24.23;;;;;;;24.64;16.18;94732.19;5052055;28;20060;-67
2021/11/12 14:27:03;;;;;;;30.50;25.55;;;;;;;23.77;17.49;94737.63;5055282;28;20055;-59
2021/11/12 14:32:45;;;;;;;30.15;24.92;;;;;;;24.08;17.02;94730.38;5056715;28;20052;-61
2021/11/12 14:40:15;;;;;;;35.42;26.02;;;;;;;25.12;16.34;94736.50;5057649;28;20048;-65
2021/11/12 14:45:58;;;;;;;101.70;62.42;;;;;;;25.94;15.64;94739.75;5069912;28;20131;-59
2021/11/12 14:48:35;;;;;;;50.53;37.55;;;;;;;26.06;15.19;94744.81;5057050;28;20041;-63
2021/11/12 14:51:20;;;;;;;39.20;31.23;;;;;;;26.68;14.84;94746.59;5056901;28;20041;-59
2021/11/12 14:56:22;;;;;;;54.72;35.92;;;;;;;25.47;16.30;94745.91;5076558;28;20466;-58
2021/11/12 14:58:56;;;;;;;52.88;35.05;;;;;;;24.43;17.69;94746.84;5060226;28;20063;-60
2021/11/12 15:01:26;;;;;;;47.88;35.53;;;;;;;23.27;19.27;94742.19;5056920;28;20056;-65
2021/11/12 15:03:54;;;;;;;48.72;36.30;;;;;;;22.75;20.10;94746.25;5059665;28;20049;-60
2021/11/12 15:06:23;;;;;;;52.55;35.25;;;;;;;22.66;20.31;94743.03;5062397;28;20040;-59
2021/11/12 15:09:38;;;;;;;50.22;35.25;;;;;;;22.49;20.52;94751.47;5076761;28;20052;-62
2021/11/12 15:11:40;;;;;;;54.17;35.67;;;;;;;22.30;20.90;94751.47;5050078;28;20064;-62
2021/11/12 15:14:12;;;;;;;54.90;32.85;;;;;;;22.76;20.19;94741.69;5070544;28;20053;-50
2021/11/12 15:16:41;;;;;;;57.08;41.80;;;;;;;23.21;20.11;94756.94;5072926;28;20115;-65
2021/11/12 15:19:12;;;;;;;62.92;42.80;;;;;;;23.06;20.50;94758.59;5067718;28;20063;-65
2021/11/12 15:21:50;;;;;;;69.60;45.58;;;;;;;22.91;20.49;94761.41;5056241;28;20103;-68
2021/11/12 15:27:10;;;;;;;66.78;43.17;;;;;;;22.39;21.57;94765.34;5064940;28;20071;-62
2021/11/12 15:32:16;;;;;;;82.05;56.33;;;;;;;22.51;21.25;94762.53;5075882;28;20059;-58
2021/11/12 15:34:49;;;;;;;75.25;49.45;;;;;;;21.72;22.69;94770.00;5076172;28;20056;-58
2021/11/12 15:46:11;;;;;;;96.65;68.72;;;;;;;22.23;21.87;94785.94;5065583;28;20060;-58
2021/11/12 15:48:18;;;;;;;112.63;77.85;;;;;;;22.25;22.15;94781.03;5040503;28;20766;-47
2021/11/12 15:51:15;;;;;;;115.88;76.22;;;;;;;22.11;22.21;94782.28;5055986;28;20464;-50
2021/11/12 16:09:38;;;;;;;120.35;77.97;;;;;;;21.77;22.73;94801.66;5075882;28;20071;-48
2021/11/12 16:27:16;;;;;;;121.75;89.63;;;;;;;21.84;21.88;94809.78;5064284;28;20830;-49
2021/11/12 16:29:53;;;;;;;119.55;89.05;;;;;;;21.37;22.91;94813.28;5066397;28;20052;-47
2021/11/12 16:32:38;;;;;;;131.00;99.53;;;;;;;21.45;22.21;94811.56;5056711;28;20082;-46
2021/11/12 16:35:09;;;;;;;116.10;93.53;;;;;;;21.06;23.10;94815.88;5075122;28;20048;-46
2021/11/12 16:37:36;;;;;;;126.00;93.85;;;;;;;20.72;23.17;94820.72;5087164;28;20060;-47
2021/11/12 16:40:10;;;;;;;127.63;95.45;;;;;;;20.89;23.31;94817.75;5054406;28;20317;-47
2021/11/12 16:50:32;;;;;;;122.07;90.05;;;;;;;20.86;23.50;94828.28;5073632;28;20450;-48
2021/11/12 16:53:26;;;;;;;113.07;87.78;;;;;;;20.84;24.77;94828.63;5073672;28;20044;-48
2021/11/12 16:58:24;;;;;;;133.43;100.93;;;;;;;20.71;23.69;94835.09;5092524;28;20044;-47
2021/11/12 17:46:42;;;;;;;135.88;93.70;;;;;;;19.52;24.96;94831.19;5073571;28;20060;-47
2021/11/12 18:03:04;;;;;;;87.40;61.45;;;;;;;20.09;22.70;94831.06;5077547;28;20047;-47
2021/11/12 21:45:16;;;;;;;46.10;27.98;;;;;;;18.19;22.89;94872.72;5046890;28;20052;-58
2021/11/12 21:47:43;;;;;;;44.50;29.13;;;;;;;16.93;25.21;94873.38;5062238;28;20044;-60
2021/11/12 21:50:10;;;;;;;36.80;27.65;;;;;;;16.71;25.10;94870.94;5058670;28;20046;-59
2021/11/12 21:52:40;;;;;;;44.83;29.70;;;;;;;16.60;25.83;94871.19;5065950;28;20052;-62
2021/11/12 21:55:07;;;;;;;41.08;29.35;;;;;;;16.74;25.10;94865.03;5063443;28;20060;-59
2021/11/12 21:57:35;;;;;;;44.60;29.73;;;;;;;16.68;25.36;94872.31;5064976;28;20052;-57
2021/11/12 22:00:04;;;;;;;38.50;29.20;;;;;;;16.98;25.36;94877.72;5063398;28;20447;-57
2021/11/12 22:02:39;;;;;;;41.55;28.67;;;;;;;16.48;25.83;94868.41;5061314;28;20048;-59